Time;durP1;ratioP1;P1;durP2;ratioP2;P2;SDS_P1;SDS_P2;PMS_P1;PMS_P2;Temp;Humidity;BMP_temperature;BMP_pressure;BME280_temperature;BME280_humidity;BME280_pressure;Samples;Min_cycle;Max_cycle;Signal;HPM_P1;HPM_P2
2022/05/18 00:01:07;;;;;;;8.73;5.90;;;13.30;99.90;;;;;;5051821;28;20021;-85
2022/05/18 00:03:36;;;;;;;11.13;5.75;;;13.30;99.90;;;;;;5051845;28;20017;-85
2022/05/18 00:06:03;;;;;;;15.00;5.97;;;13.20;99.90;;;;;;5034447;28;20036;-85
2022/05/18 00:08:35;;;;;;;8.30;6.00;;;13.10;99.90;;;;;;5033675;28;20059;-85
2022/05/18 00:11:12;;;;;;;11.80;6.05;;;13.10;99.90;;;;;;5051476;28;20530;-85
2022/05/18 00:13:38;;;;;;;7.38;5.97;;;13.10;99.90;;;;;;5050386;28;20474;-85
2022/05/18 00:16:05;;;;;;;9.10;5.85;;;13.00;99.90;;;;;;5053178;28;20025;-85
2022/05/18 00:18:30;;;;;;;8.82;6.38;;;13.10;99.90;;;;;;5052422;28;20488;-85
2022/05/18 00:20:56;;;;;;;12.45;6.35;;;13.00;99.90;;;;;;5052314;28;20021;-85
2022/05/18 00:23:21;;;;;;;7.40;6.03;;;13.00;99.90;;;;;;5052401;28;20059;-84
2022/05/18 00:25:47;;;;;;;10.00;6.07;;;13.00;99.90;;;;;;5051722;28;20017;-84
2022/05/18 00:28:12;;;;;;;8.32;6.28;;;12.90;99.90;;;;;;5051713;28;20025;-84
2022/05/18 00:30:41;;;;;;;9.50;6.25;;;12.90;99.90;;;;;;5051867;28;20032;-84
2022/05/18 00:33:09;;;;;;;8.43;6.18;;;12.90;99.90;;;;;;5034112;28;20021;-84
2022/05/18 00:35:36;;;;;;;8.32;6.50;;;12.90;99.90;;;;;;5051265;28;20067;-84
2022/05/18 00:38:03;;;;;;;11.65;6.32;;;12.80;99.90;;;;;;5051528;28;20082;-83
2022/05/18 00:40:30;;;;;;;10.23;7.10;;;12.80;99.90;;;;;;5032956;28;20047;-83
2022/05/18 00:42:55;;;;;;;9.60;6.25;;;12.80;99.90;;;;;;5050991;28;20068;-83
2022/05/18 00:45:21;;;;;;;10.10;6.63;;;12.80;99.90;;;;;;5051195;28;20482;-83
2022/05/18 00:47:47;;;;;;;8.75;6.28;;;12.70;99.90;;;;;;5051273;28;20021;-83
2022/05/18 00:50:27;;;;;;;11.68;6.32;;;12.80;99.90;;;;;;5051267;28;20029;-83
2022/05/18 00:52:58;;;;;;;8.45;6.35;;;12.70;99.90;;;;;;5052037;28;20033;-83
2022/05/18 00:55:26;;;;;;;8.88;6.40;;;12.70;99.90;;;;;;5052370;28;20029;-83
2022/05/18 00:58:00;;;;;;;10.65;7.25;;;12.70;99.90;;;;;;5052179;28;20122;-83
2022/05/18 01:00:26;;;;;;;8.20;6.32;;;12.60;99.90;;;;;;5051774;28;20025;-83
2022/05/18 01:03:06;;;;;;;10.18;6.57;;;12.60;99.90;;;;;;5051956;28;20091;-83
2022/05/18 01:05:35;;;;;;;11.43;6.68;;;12.60;99.90;;;;;;5029492;28;20374;-83
2022/05/18 01:08:01;;;;;;;8.35;5.68;;;12.60;99.90;;;;;;5050660;28;20845;-83
2022/05/18 01:10:28;;;;;;;9.45;6.18;;;12.50;99.90;;;;;;5032643;28;20184;-83
2022/05/18 01:12:55;;;;;;;10.13;6.60;;;12.50;99.90;;;;;;5049989;28;20112;-83
2022/05/18 01:15:22;;;;;;;8.18;6.40;;;12.50;99.90;;;;;;5049523;28;20822;-83
2022/05/18 01:17:54;;;;;;;8.75;6.30;;;12.40;99.90;;;;;;5051116;28;20056;-83
2022/05/18 01:20:24;;;;;;;9.18;6.63;;;12.40;99.90;;;;;;5051059;28;20036;-83
2022/05/18 01:23:09;;;;;;;10.32;6.68;;;12.40;99.90;;;;;;5051733;28;20056;-83
2022/05/18 01:25:49;;;;;;;8.88;6.30;;;12.40;99.90;;;;;;5052300;28;20063;-83
2022/05/18 01:28:14;;;;;;;8.77;6.60;;;12.40;99.90;;;;;;5053293;28;20021;-82
2022/05/18 01:30:45;;;;;;;8.93;6.80;;;12.40;99.90;;;;;;5037109;28;20017;-83
2022/05/18 01:33:11;;;;;;;8.77;6.57;;;12.30;99.90;;;;;;5036842;28;20134;-83
2022/05/18 01:35:42;;;;;;;8.27;6.00;;;12.30;99.90;;;;;;5054933;28;20104;-83
2022/05/18 01:38:12;;;;;;;11.18;6.70;;;12.30;99.90;;;;;;5055614;28;20095;-82
2022/05/18 01:40:59;;;;;;;9.68;6.35;;;12.30;99.90;;;;;;5050922;28;20055;-83
2022/05/18 01:43:37;;;;;;;10.77;6.65;;;12.20;99.90;;;;;;5034955;28;20025;-83
2022/05/18 01:46:07;;;;;;;8.63;6.70;;;12.20;99.90;;;;;;5053041;28;20025;-82
2022/05/18 01:48:44;;;;;;;8.45;6.40;;;12.20;99.90;;;;;;5054554;28;20036;-82
2022/05/18 01:51:13;;;;;;;9.23;6.20;;;12.10;99.90;;;;;;5053506;28;20107;-82
2022/05/18 01:53:38;;;;;;;9.07;6.15;;;12.10;99.90;;;;;;5036553;28;20025;-82
2022/05/18 01:56:08;;;;;;;11.20;6.78;;;12.10;99.90;;;;;;5053280;28;20111;-83
2022/05/18 01:58:36;;;;;;;11.20;6.55;;;12.00;99.90;;;;;;5054037;28;20025;-82
2022/05/18 02:01:06;;;;;;;8.32;6.18;;;12.00;99.90;;;;;;5054242;28;20497;-82
2022/05/18 02:03:34;;;;;;;11.77;6.97;;;11.90;99.90;;;;;;5055344;28;20059;-83
2022/05/18 02:06:00;;;;;;;8.73;6.60;;;11.90;99.90;;;;;;5054983;28;20027;-82
2022/05/18 02:08:28;;;;;;;9.70;6.45;;;11.90;99.90;;;;;;5054751;28;20029;-83
2022/05/18 02:11:00;;;;;;;10.38;6.72;;;11.80;99.90;;;;;;5053473;28;20028;-82
2022/05/18 02:13:26;;;;;;;8.75;6.38;;;11.80;99.90;;;;;;5053486;28;20028;-82
2022/05/18 02:15:57;;;;;;;8.00;6.88;;;11.80;99.90;;;;;;5053949;28;20025;-82
2022/05/18 02:18:30;;;;;;;9.27;6.50;;;11.80;99.90;;;;;;5036019;28;20146;-82
2022/05/18 02:21:04;;;;;;;8.35;6.82;;;11.70;99.90;;;;;;5052801;28;20500;-83
2022/05/18 02:23:30;;;;;;;15.80;7.38;;;11.70;99.90;;;;;;5053352;28;20033;-83
2022/05/18 02:25:55;;;;;;;10.32;6.93;;;11.70;99.90;;;;;;5035083;28;20031;-83
2022/05/18 02:28:21;;;;;;;11.82;7.05;;;11.70;99.90;;;;;;5035563;28;20017;-83
2022/05/18 02:30:47;;;;;;;10.57;6.30;;;11.70;99.90;;;;;;5052426;28;20091;-83
2022/05/18 02:33:12;;;;;;;10.02;6.63;;;11.60;99.90;;;;;;5052881;28;20296;-83
2022/05/18 02:35:40;;;;;;;11.20;6.72;;;11.70;99.90;;;;;;5052747;28;20751;-83
2022/05/18 02:38:07;;;;;;;12.75;7.38;;;11.70;99.90;;;;;;5053319;28;20057;-83
2022/05/18 02:40:35;;;;;;;11.55;6.95;;;11.60;99.90;;;;;;5053442;28;20029;-83
2022/05/18 02:43:01;;;;;;;10.23;6.93;;;11.60;99.90;;;;;;5035793;28;20462;-83
2022/05/18 02:45:26;;;;;;;7.45;6.40;;;11.60;99.90;;;;;;5052392;28;20064;-82
2022/05/18 02:47:53;;;;;;;10.35;6.88;;;11.60;99.90;;;;;;5053043;28;20025;-82
2022/05/18 02:50:19;;;;;;;9.77;6.93;;;11.50;99.90;;;;;;5034513;28;20040;-82
2022/05/18 02:52:45;;;;;;;11.15;7.07;;;11.50;99.90;;;;;;5012618;28;20058;-84
2022/05/18 02:57:55;;;;;;;16.83;8.02;;;11.50;99.90;;;;;;5011611;28;20104;-84
2022/05/18 03:00:21;;;;;;;13.65;6.93;;;11.50;99.90;;;;;;5013605;28;20816;-84
2022/05/18 03:02:47;;;;;;;11.85;8.23;;;11.50;99.90;;;;;;5012995;28;20499;-85
2022/05/18 03:05:13;;;;;;;9.93;7.43;;;11.50;99.90;;;;;;5013716;28;20109;-85
2022/05/18 03:07:38;;;;;;;9.07;7.07;;;11.40;99.90;;;;;;5014539;28;20014;-85
2022/05/18 03:10:04;;;;;;;10.15;8.10;;;11.40;99.90;;;;;;5013853;28;20030;-85
2022/05/18 03:12:30;;;;;;;11.13;6.90;;;11.40;99.90;;;;;;5014238;28;20101;-85
2022/05/18 03:14:58;;;;;;;10.32;7.25;;;11.40;99.90;;;;;;5014125;28;20052;-84
2022/05/18 03:17:23;;;;;;;12.40;7.20;;;11.40;99.90;;;;;;5014076;28;20025;-85
2022/05/18 03:19:49;;;;;;;9.73;7.15;;;11.40;99.90;;;;;;5013528;28;20041;-85
2022/05/18 03:24:58;;;;;;;13.50;8.23;;;11.30;99.90;;;;;;5013467;28;20033;-85
2022/05/18 03:27:27;;;;;;;11.68;7.45;;;11.30;99.90;;;;;;5011733;28;20025;-85
2022/05/18 03:29:52;;;;;;;10.45;7.25;;;11.30;99.90;;;;;;5012684;28;20119;-85
2022/05/18 03:32:22;;;;;;;10.20;6.90;;;11.30;99.90;;;;;;5008990;28;20502;-85
2022/05/18 03:34:49;;;;;;;10.98;7.07;;;11.30;99.90;;;;;;5011726;28;20022;-85
2022/05/18 03:37:16;;;;;;;9.52;7.00;;;11.30;99.90;;;;;;5013213;28;20107;-85
2022/05/18 03:39:42;;;;;;;10.45;7.55;;;11.30;99.90;;;;;;5011355;28;20168;-85
2022/05/18 03:42:08;;;;;;;8.82;6.97;;;11.30;99.90;;;;;;5011796;28;20120;-85
2022/05/18 03:44:33;;;;;;;11.93;7.65;;;11.20;99.90;;;;;;5013229;28;20022;-85
2022/05/18 03:46:59;;;;;;;12.68;7.57;;;11.30;99.90;;;;;;5012158;28;20037;-84
2022/05/18 03:49:25;;;;;;;11.63;8.30;;;11.30;99.90;;;;;;5012674;28;20033;-84
2022/05/18 03:51:50;;;;;;;13.37;8.80;;;11.30;99.90;;;;;;5011110;28;20133;-85
2022/05/18 03:54:16;;;;;;;11.40;8.05;;;11.20;99.90;;;;;;5012368;28;20101;-85
2022/05/18 03:56:42;;;;;;;10.20;7.72;;;11.30;99.90;;;;;;5012768;28;20044;-85
2022/05/18 03:59:07;;;;;;;9.07;7.55;;;11.30;99.90;;;;;;5010770;28;20045;-85
2022/05/18 04:01:33;;;;;;;14.68;8.18;;;11.20;99.90;;;;;;5011715;28;20029;-85
2022/05/18 04:03:59;;;;;;;12.55;7.40;;;11.30;99.90;;;;;;5012453;28;20125;-84
2022/05/18 04:06:24;;;;;;;11.13;7.68;;;11.30;99.90;;;;;;5011205;28;20104;-85
2022/05/18 04:08:50;;;;;;;11.70;7.47;;;11.30;99.90;;;;;;5011326;28;20387;-84
2022/05/18 04:11:22;;;;;;;12.82;7.40;;;11.20;99.90;;;;;;5012791;28;20444;-94
2022/05/18 04:13:48;;;;;;;11.50;6.70;;;11.20;99.90;;;;;;5013255;28;20026;-82
2022/05/18 04:16:13;;;;;;;12.00;7.03;;;11.30;99.90;;;;;;5012428;28;20025;-83
2022/05/18 04:18:39;;;;;;;12.88;7.50;;;11.30;99.90;;;;;;5005500;28;20072;-83
2022/05/18 04:21:06;;;;;;;8.82;6.72;;;11.30;99.90;;;;;;5004991;28;20030;-83
2022/05/18 04:23:32;;;;;;;12.18;6.55;;;11.20;99.90;;;;;;5006099;28;20351;-83
2022/05/18 04:25:57;;;;;;;10.73;6.90;;;11.20;99.90;;;;;;5007654;28;20097;-82
2022/05/18 04:28:23;;;;;;;10.98;6.90;;;11.30;99.90;;;;;;5008016;28;20096;-84
2022/05/18 04:30:50;;;;;;;14.00;7.45;;;11.30;99.90;;;;;;5001427;28;20105;-84
2022/05/18 04:33:19;;;;;;;11.25;6.88;;;11.30;99.90;;;;;;5005204;28;20045;-83
2022/05/18 04:35:45;;;;;;;10.65;6.72;;;11.30;99.90;;;;;;5006803;28;20479;-83
2022/05/18 04:38:10;;;;;;;8.27;6.45;;;11.40;99.90;;;;;;5009667;28;20038;-82
2022/05/18 04:40:37;;;;;;;11.02;7.03;;;11.40;99.90;;;;;;5007272;28;20045;-82
2022/05/18 04:43:02;;;;;;;12.13;7.43;;;11.50;99.90;;;;;;5006799;28;20155;-81
2022/05/18 04:45:28;;;;;;;12.63;7.93;;;11.50;99.90;;;;;;5011646;28;20138;-81
2022/05/18 04:47:56;;;;;;;15.85;7.63;;;11.60;99.90;;;;;;5007518;28;20041;-82
2022/05/18 04:50:22;;;;;;;10.20;7.18;;;11.70;99.90;;;;;;5004977;28;20033;-81
2022/05/18 04:52:48;;;;;;;7.97;6.72;;;11.80;99.90;;;;;;5007497;28;20111;-81
2022/05/18 04:55:15;;;;;;;11.35;6.85;;;11.90;99.90;;;;;;5007808;28;20023;-81
2022/05/18 04:57:41;;;;;;;9.15;7.40;;;12.00;99.90;;;;;;5011718;28;20485;-82
2022/05/18 05:00:10;;;;;;;12.13;6.43;;;12.10;99.90;;;;;;5008201;28;20041;-81
2022/05/18 05:02:37;;;;;;;10.75;6.63;;;12.10;99.90;;;;;;5012592;28;20040;-81
2022/05/18 05:05:05;;;;;;;8.32;6.55;;;12.20;99.90;;;;;;5007101;28;20079;-82
2022/05/18 05:07:31;;;;;;;8.10;6.30;;;12.30;99.90;;;;;;5012224;28;20033;-82
2022/05/18 05:09:56;;;;;;;11.10;7.10;;;12.40;99.90;;;;;;5006047;28;20714;-82
2022/05/18 05:12:26;;;;;;;10.98;7.30;;;12.50;99.90;;;;;;5010194;28;20611;-84
2022/05/18 05:14:51;;;;;;;12.27;7.47;;;12.60;99.90;;;;;;5014954;28;20440;-89
2022/05/18 05:17:20;;;;;;;9.40;6.78;;;12.60;99.90;;;;;;5018105;28;20065;-89
2022/05/18 05:19:46;;;;;;;9.90;7.10;;;12.70;99.90;;;;;;5017487;28;20057;-90
2022/05/18 05:22:14;;;;;;;12.07;7.05;;;12.90;99.90;;;;;;5009504;28;20030;-82
2022/05/18 05:24:47;;;;;;;12.00;7.55;;;13.00;99.90;;;;;;5005150;28;20026;-80
2022/05/18 05:27:21;;;;;;;14.52;7.18;;;13.10;99.90;;;;;;5012223;28;20026;-89
2022/05/18 05:29:49;;;;;;;10.07;7.20;;;13.20;99.90;;;;;;5010065;28;20104;-83
2022/05/18 05:32:18;;;;;;;7.53;6.72;;;13.40;99.90;;;;;;5014130;28;20026;-83
2022/05/18 05:35:08;;;;;;;10.80;7.25;;;13.50;99.90;;;;;;5012986;28;20117;-83
2022/05/18 05:38:28;;;;;;;10.48;6.65;;;13.70;99.90;;;;;;5014594;28;20053;-83
2022/05/18 05:41:29;;;;;;;8.32;6.78;;;13.90;99.90;;;;;;4988055;28;20057;-83
2022/05/18 05:44:00;;;;;;;16.88;6.90;;;14.20;99.90;;;;;;4951622;28;20841;-84
2022/05/18 05:47:08;;;;;;;;;;;;;;;;;;;;;
2022/05/18 05:50:07;;;;;;;10.60;6.85;;;14.60;99.90;;;;;;4913062;29;20064;-79
2022/05/18 05:52:42;;;;;;;9.35;5.93;;;14.90;99.90;;;;;;4931036;29;20055;-83
2022/05/18 05:55:10;;;;;;;12.35;6.28;;;15.10;99.90;;;;;;4976847;28;20068;-83
2022/05/18 05:57:38;;;;;;;10.18;5.80;;;15.30;99.90;;;;;;4987306;28;20462;-83
2022/05/18 06:00:08;;;;;;;10.35;6.03;;;15.50;99.90;;;;;;4985648;28;20506;-79
2022/05/18 06:02:58;;;;;;;14.25;6.72;;;15.70;99.90;;;;;;4980313;28;20033;-88
2022/05/18 06:06:00;;;;;;;;;;;;;;;;;;;;;
2022/05/18 06:08:50;;;;;;;18.88;8.20;;;16.20;99.90;;;;;;4979896;28;20041;-78
2022/05/18 06:14:23;;;;;;;16.92;9.48;;;16.50;99.90;;;;;;5008670;28;20064;-82
2022/05/18 06:20:17;;;;;;;14.63;9.18;;;16.80;99.90;;;;;;5006746;28;20033;-84
2022/05/18 06:22:58;;;;;;;14.90;8.93;;;17.00;99.90;;;;;;5018117;28;20066;-79
2022/05/18 06:26:16;;;;;;;11.50;8.35;;;17.10;99.90;;;;;;5005171;28;20065;-78
2022/05/18 06:29:17;;;;;;;13.07;8.88;;;17.20;99.90;;;;;;5005241;28;20026;-79
2022/05/18 06:34:57;;;;;;;16.90;9.68;;;17.50;99.90;;;;;;5005678;28;20464;-80
2022/05/18 06:37:57;;;;;;;18.38;9.40;;;17.60;99.90;;;;;;5006860;28;20037;-86
2022/05/18 06:44:30;;;;;;;12.13;9.38;;;17.90;99.90;;;;;;4963001;28;20053;-84
2022/05/18 06:47:18;;;;;;;;;;;;;;;;;;;;;
2022/05/18 06:50:18;;;;;;;17.30;10.13;;;18.00;99.90;;;;;;4963489;28;20039;-85
2022/05/18 06:53:19;;;;;;;13.20;8.75;;;18.10;99.90;;;;;;4113217;29;24237852;-85
2022/05/18 06:56:27;;;;;;;;;;;;;;;;;;;;;
2022/05/18 06:59:26;;;;;;;15.88;10.15;;;18.20;99.90;;;;;;4871416;29;20552;-81
2022/05/18 07:01:57;;;;;;;21.08;10.70;;;18.30;99.90;;;;;;4870272;29;20074;-80
2022/05/18 07:04:57;;;;;;;15.48;10.52;;;18.40;99.90;;;;;;4946390;29;20032;-83
2022/05/18 07:07:41;;;;;;;14.23;9.90;;;18.60;99.90;;;;;;4965275;28;20045;-82
2022/05/18 07:10:08;;;;;;;16.05;11.38;;;18.60;99.90;;;;;;5010384;28;20053;-83
2022/05/18 07:13:09;;;;;;;14.55;10.63;;;18.70;99.90;;;;;;5004827;28;20112;-83
2022/05/18 07:15:41;;;;;;;14.02;9.82;;;18.80;99.90;;;;;;5003515;28;20189;-82
2022/05/18 07:18:41;;;;;;;16.83;10.80;;;18.80;99.90;;;;;;5004876;28;20108;-82
2022/05/18 07:21:08;;;;;;;13.90;10.52;;;18.90;99.90;;;;;;5020752;28;20046;-83
2022/05/18 07:23:37;;;;;;;18.13;10.75;;;19.00;99.90;;;;;;5029232;28;20029;-86
2022/05/18 07:26:29;;;;;;;15.75;10.65;;;19.00;99.90;;;;;;5002650;28;20034;-80
2022/05/18 07:29:00;;;;;;;16.77;10.20;;;19.00;99.90;;;;;;4999564;28;20363;-76
2022/05/18 07:32:08;;;;;;;19.02;9.07;;;19.10;99.90;;;;;;5004345;28;20048;-77
2022/05/18 07:34:21;;;;;;;17.10;10.02;;;19.20;99.90;;;;;;5004593;28;20056;-80
2022/05/18 07:39:39;;;;;;;11.55;8.48;;;19.40;99.90;;;;;;5009924;28;20038;-85
2022/05/18 07:42:08;;;;;;;15.75;9.05;;;19.50;99.90;;;;;;5022354;28;20033;-84
2022/05/18 07:44:41;;;;;;;17.00;8.38;;;19.60;99.90;;;;;;5008313;28;20597;-85
2022/05/18 07:47:07;;;;;;;11.15;7.22;;;19.60;99.90;;;;;;5002104;28;20137;-80
2022/05/18 07:49:41;;;;;;;11.55;7.30;;;19.70;99.90;;;;;;5005170;28;20041;-80
2022/05/18 07:52:07;;;;;;;11.60;6.90;;;19.80;99.90;;;;;;5013121;28;20056;-80
2022/05/18 07:54:34;;;;;;;11.52;6.18;;;19.90;99.90;;;;;;5043364;28;20374;-79
2022/05/18 07:57:00;;;;;;;11.10;6.30;;;19.90;99.90;;;;;;5025398;28;20033;-79
2022/05/18 07:59:29;;;;;;;8.83;6.30;;;20.00;99.90;;;;;;5026644;28;20120;-86
2022/05/18 08:01:54;;;;;;;9.05;5.82;;;20.10;99.90;;;;;;5047332;28;20033;-80
2022/05/18 08:04:20;;;;;;;10.30;5.93;;;20.20;99.90;;;;;;5044207;28;20036;-79
2022/05/18 08:06:46;;;;;;;9.85;4.88;;;20.30;99.90;;;;;;5025439;28;20032;-80
2022/05/18 08:09:11;;;;;;;9.70;5.57;;;20.30;99.90;;;;;;5043840;28;20053;-80
2022/05/18 08:15:05;;;;;;;8.05;4.93;;;20.60;99.90;;;;;;5044834;28;20040;-79
2022/05/18 08:17:19;;;;;;;6.43;4.65;;;20.80;99.90;;;;;;5041186;28;20860;-80
2022/05/18 08:19:44;;;;;;;7.50;5.07;;;20.90;99.90;;;;;;5043080;28;20028;-80
2022/05/18 08:22:12;;;;;;;9.05;4.60;;;21.00;99.90;;;;;;5041518;28;20021;-79
2022/05/18 08:24:38;;;;;;;8.02;3.78;;;21.10;99.90;;;;;;5026392;28;20090;-79
2022/05/18 08:27:12;;;;;;;8.18;4.88;;;21.10;99.90;;;;;;5044969;28;20457;-79
2022/05/18 08:29:37;;;;;;;7.63;4.90;;;21.20;99.90;;;;;;5043132;28;20432;-80
2022/05/18 08:32:03;;;;;;;9.35;4.35;;;21.20;99.90;;;;;;5025600;28;20283;-79
2022/05/18 08:34:29;;;;;;;8.27;4.82;;;21.30;99.90;;;;;;5044236;28;20478;-79
2022/05/18 08:36:55;;;;;;;11.48;4.53;;;21.40;99.90;;;;;;5043014;28;20032;-79
2022/05/18 08:39:20;;;;;;;10.57;4.60;;;21.30;99.90;;;;;;5024097;28;20466;-79
2022/05/18 08:41:47;;;;;;;10.43;4.57;;;21.40;99.90;;;;;;5042978;28;20044;-79
2022/05/18 08:44:28;;;;;;;11.75;4.93;;;21.50;99.90;;;;;;5043303;28;20059;-79
2022/05/18 08:47:11;;;;;;;12.40;5.13;;;21.40;99.90;;;;;;5047017;28;20025;-73
2022/05/18 08:50:00;;;;;;;10.65;4.50;;;21.50;99.90;;;;;;5046020;28;20078;-73
2022/05/18 08:52:58;;;;;;;9.00;6.70;;;21.40;99.90;;;;;;5044649;28;20052;-73
2022/05/18 08:55:48;;;;;;;13.45;6.85;;;21.50;99.90;;;;;;5042692;28;20021;-73
2022/05/18 08:58:29;;;;;;;10.57;6.50;;;21.50;99.90;;;;;;5046676;28;20028;-73
2022/05/18 09:01:12;;;;;;;12.05;6.07;;;21.60;99.90;;;;;;5049696;28;20106;-84
2022/05/18 09:03:49;;;;;;;11.13;5.65;;;21.70;99.90;;;;;;5049660;28;20759;-84
2022/05/18 09:06:27;;;;;;;11.95;5.28;;;21.80;99.90;;;;;;5051164;28;20110;-84
2022/05/18 09:11:49;;;;;;;8.80;4.72;;;22.00;99.90;;;;;;5050926;28;20036;-84
2022/05/18 09:14:19;;;;;;;7.40;5.47;;;22.00;99.90;;;;;;5051230;28;20025;-83
2022/05/18 09:17:06;;;;;;;9.65;4.68;;;22.10;99.90;;;;;;5048887;28;20389;-84
2022/05/18 09:19:48;;;;;;;12.55;5.15;;;22.10;99.90;;;;;;5051019;28;20078;-80
2022/05/18 09:22:26;;;;;;;6.95;4.47;;;22.20;99.90;;;;;;5049478;28;20154;-79
2022/05/18 09:25:20;;;;;;;9.73;5.32;;;22.40;99.90;;;;;;5032304;28;20465;-80
2022/05/18 09:28:17;;;;;;;10.35;5.15;;;22.70;99.90;;;;;;5050783;28;20029;-80
2022/05/18 09:30:58;;;;;;;9.43;4.75;;;23.00;99.90;;;;;;5049631;28;20065;-80
2022/05/18 09:34:00;;;;;;;8.30;4.35;;;23.30;99.90;;;;;;5032518;28;20144;-80
2022/05/18 09:37:07;;;;;;;12.23;4.88;;;23.50;99.90;;;;;;5049764;28;20092;-80
2022/05/18 09:39:37;;;;;;;7.75;4.57;;;23.80;99.90;;;;;;5051101;28;20029;-80
2022/05/18 09:42:09;;;;;;;6.88;4.18;;;24.00;99.90;;;;;;5051307;28;20070;-80
2022/05/18 09:45:18;;;;;;;10.15;4.97;;;24.30;99.90;;;;;;5050696;28;20060;-81
2022/05/18 09:47:59;;;;;;;11.15;5.53;;;24.40;99.90;;;;;;5054218;28;20029;-80
2022/05/18 09:50:26;;;;;;;9.02;5.20;;;24.70;99.90;;;;;;5054852;28;20023;-80
2022/05/18 09:52:52;;;;;;;7.22;4.50;;;24.60;99.90;;;;;;5036452;28;20453;-80
2022/05/18 09:55:21;;;;;;;8.10;4.82;;;24.60;99.90;;;;;;5052253;28;20104;-81
2022/05/18 09:58:06;;;;;;;10.40;5.10;;;24.60;99.90;;;;;;5054552;28;20104;-81
2022/05/18 10:00:34;;;;;;;9.18;4.70;;;24.60;99.90;;;;;;5035895;28;20033;-80
2022/05/18 10:08:57;;;;;;;7.45;3.63;;;24.90;99.90;;;;;;5054653;28;20032;-81
2022/05/18 10:11:30;;;;;;;9.65;4.35;;;25.20;99.90;;;;;;5036573;28;20033;-81
2022/05/18 10:14:07;;;;;;;8.73;3.55;;;25.30;99.90;;;;;;5036649;28;20044;-80
2022/05/18 10:16:38;;;;;;;6.70;3.67;;;25.50;99.90;;;;;;5054341;28;20033;-80
2022/05/18 10:19:05;;;;;;;7.03;4.13;;;25.50;99.90;;;;;;5036126;28;20477;-80
2022/05/18 10:21:55;;;;;;;7.03;3.65;;;25.70;99.90;;;;;;5054469;28;20064;-80
2022/05/18 10:24:28;;;;;;;6.70;3.30;;;25.70;99.90;;;;;;5053038;28;20056;-80
2022/05/18 10:27:23;;;;;;;13.50;4.10;;;25.60;99.90;;;;;;5053619;28;20017;-81
2022/05/18 10:30:08;;;;;;;8.02;3.70;;;25.70;99.90;;;;;;5052876;28;20497;-76
2022/05/18 10:32:36;;;;;;;8.20;3.42;;;25.80;99.90;;;;;;5052076;28;20033;-73
2022/05/18 10:35:02;;;;;;;8.27;4.18;;;25.80;99.90;;;;;;5051214;28;20128;-72
2022/05/18 10:37:39;;;;;;;8.27;3.78;;;25.80;99.90;;;;;;5052390;28;20052;-72
2022/05/18 10:40:08;;;;;;;5.60;3.28;;;25.70;99.90;;;;;;5051828;28;20432;-72
2022/05/18 10:42:42;;;;;;;6.93;3.17;;;25.60;99.90;;;;;;5052069;28;20121;-71
2022/05/18 10:45:26;;;;;;;5.38;3.40;;;25.60;99.90;;;;;;5047501;28;20057;-72
2022/05/18 10:47:56;;;;;;;7.40;3.13;;;25.60;99.90;;;;;;5049472;28;20384;-71
2022/05/18 10:50:24;;;;;;;5.80;3.28;;;25.90;99.90;;;;;;5049687;28;20055;-72
2022/05/18 10:53:00;;;;;;;7.43;3.30;;;25.90;99.90;;;;;;5031966;28;20486;-72
2022/05/18 10:55:28;;;;;;;11.90;2.92;;;25.80;99.90;;;;;;5046670;28;20061;-77
2022/05/18 10:58:04;;;;;;;7.55;3.00;;;25.70;99.90;;;;;;5049518;28;20021;-72
2022/05/18 11:00:47;;;;;;;5.75;3.20;;;25.80;99.90;;;;;;5044393;28;20803;-72
2022/05/18 11:03:22;;;;;;;5.18;2.85;;;26.00;99.90;;;;;;5040435;28;20029;-72
2022/05/18 11:06:04;;;;;;;5.13;2.70;;;26.20;99.90;;;;;;5040572;28;20029;-72
2022/05/18 11:08:33;;;;;;;5.05;2.78;;;26.30;99.90;;;;;;5039290;28;20017;-71
2022/05/18 11:11:12;;;;;;;5.13;3.00;;;26.50;99.90;;;;;;5042478;28;20062;-72
2022/05/18 11:14:07;;;;;;;5.28;2.88;;;26.40;99.90;;;;;;5040860;28;20418;-72
2022/05/18 11:16:42;;;;;;;6.18;2.72;;;26.50;99.90;;;;;;5010005;28;20052;-72
2022/05/18 11:19:29;;;;;;;3.80;2.47;;;26.60;99.90;;;;;;5040581;28;20063;-70
2022/05/18 11:22:11;;;;;;;6.20;2.60;;;26.60;99.90;;;;;;5049613;28;20789;-73
2022/05/18 11:25:05;;;;;;;6.85;2.50;;;26.70;99.90;;;;;;5050297;28;20021;-70
2022/05/18 11:27:55;;;;;;;7.57;2.67;;;26.90;99.90;;;;;;5047849;28;20825;-70
2022/05/18 11:30:43;;;;;;;5.50;2.08;;;27.30;99.90;;;;;;5045236;28;20048;-70
2022/05/18 11:33:46;;;;;;;5.80;2.13;;;27.50;99.90;;;;;;5045989;28;20025;-70
2022/05/18 11:36:31;;;;;;;4.65;1.80;;;27.80;95.20;;;;;;5032843;28;20044;-71
2022/05/18 11:39:07;;;;;;;5.22;1.85;;;27.90;93.70;;;;;;5047822;28;20021;-70
2022/05/18 11:42:19;;;;;;;2.55;1.70;;;28.20;94.60;;;;;;5049529;28;20033;-71
2022/05/18 11:45:07;;;;;;;4.93;1.83;;;28.30;90.50;;;;;;5049446;28;20029;-71
2022/05/18 11:47:41;;;;;;;5.60;1.95;;;28.50;93.40;;;;;;5030331;28;20315;-70
2022/05/18 11:50:25;;;;;;;4.53;1.92;;;28.60;90.40;;;;;;5049526;28;20036;-70
2022/05/18 11:53:20;;;;;;;7.93;2.58;;;28.50;93.90;;;;;;5030944;28;20118;-70
2022/05/18 11:56:35;;;;;;;4.40;2.30;;;28.50;90.40;;;;;;5017952;28;20389;-70
2022/05/18 12:02:27;;;;;;;3.58;2.00;;;28.10;93.30;;;;;;5048108;28;20036;-70
2022/05/18 12:05:11;;;;;;;4.28;1.50;;;28.20;92.70;;;;;;5049071;28;20128;-70
2022/05/18 12:08:10;;;;;;;3.42;2.00;;;28.20;91.20;;;;;;5049534;28;20021;-70
2022/05/18 12:10:49;;;;;;;2.88;2.10;;;28.20;91.50;;;;;;5047183;28;20025;-70
2022/05/18 12:13:22;;;;;;;3.80;2.03;;;28.40;91.10;;;;;;5049204;28;20028;-70
2022/05/18 12:16:02;;;;;;;2.92;2.10;;;28.50;91.70;;;;;;5048869;28;20506;-70
2022/05/18 12:18:50;;;;;;;5.45;2.30;;;28.60;91.00;;;;;;5028467;28;20036;-70
2022/05/18 12:21:26;;;;;;;5.82;2.47;;;28.80;91.80;;;;;;5046385;28;20078;-70
2022/05/18 12:24:02;;;;;;;3.55;2.10;;;29.10;91.10;;;;;;5049240;28;20308;-76
2022/05/18 12:26:31;;;;;;;4.97;2.20;;;29.40;90.50;;;;;;5046053;28;20067;-71
2022/05/18 12:28:57;;;;;;;4.57;2.45;;;29.30;90.00;;;;;;5048630;28;20044;-71
2022/05/18 12:31:24;;;;;;;6.18;2.42;;;29.50;90.10;;;;;;5049133;28;20037;-74
2022/05/18 12:34:06;;;;;;;7.35;2.30;;;29.60;87.30;;;;;;5048073;28;20107;-72
2022/05/18 12:37:02;;;;;;;6.40;2.45;;;29.60;87.60;;;;;;5046231;28;20029;-72
2022/05/18 12:39:46;;;;;;;6.93;2.60;;;29.10;90.20;;;;;;5049088;28;20025;-71
2022/05/18 12:42:28;;;;;;;5.20;2.47;;;29.00;90.50;;;;;;5049197;28;20021;-72
2022/05/18 12:44:57;;;;;;;7.32;3.08;;;29.30;90.10;;;;;;5048730;28;20033;-72
2022/05/18 12:47:27;;;;;;;4.22;2.63;;;29.20;90.00;;;;;;5048515;28;20061;-75
2022/05/18 12:49:58;;;;;;;6.55;2.80;;;29.00;90.80;;;;;;5048362;28;20052;-70
2022/05/18 12:52:30;;;;;;;4.60;2.72;;;28.90;90.20;;;;;;5045094;28;20045;-70
2022/05/18 12:55:00;;;;;;;4.45;3.00;;;28.70;90.50;;;;;;5041036;28;20087;-70
2022/05/18 12:57:53;;;;;;;6.50;2.75;;;28.70;90.70;;;;;;5043946;28;20037;-70
2022/05/18 13:00:25;;;;;;;7.88;2.72;;;28.40;89.60;;;;;;5042896;28;20056;-71
2022/05/18 13:03:00;;;;;;;4.40;2.85;;;28.20;91.50;;;;;;5051055;28;20029;-73
2022/05/18 13:05:25;;;;;;;4.47;2.70;;;28.40;91.90;;;;;;5048397;28;20021;-72
2022/05/18 13:07:53;;;;;;;7.20;2.55;;;28.60;91.90;;;;;;5045200;28;20976;-71
2022/05/18 13:10:25;;;;;;;6.72;2.35;;;28.60;90.40;;;;;;5029230;28;20029;-71
2022/05/18 13:13:04;;;;;;;5.35;2.63;;;29.00;90.40;;;;;;5044421;28;20028;-71
2022/05/18 13:15:52;;;;;;;6.03;2.50;;;29.20;89.80;;;;;;5040322;28;20029;-71
2022/05/18 13:18:25;;;;;;;4.68;2.00;;;28.80;90.50;;;;;;5044167;28;20048;-71
2022/05/18 13:21:08;;;;;;;3.38;2.10;;;28.50;88.80;;;;;;5029502;28;20025;-72
2022/05/18 13:23:52;;;;;;;3.90;2.47;;;28.50;91.00;;;;;;5051221;28;20043;-72
2022/05/18 13:26:26;;;;;;;7.25;2.58;;;28.30;88.30;;;;;;5052099;28;20028;-71
2022/05/18 13:28:55;;;;;;;5.53;2.22;;;28.20;87.30;;;;;;5052371;28;20089;-72
2022/05/18 13:31:21;;;;;;;5.55;2.03;;;28.10;90.80;;;;;;5052898;28;20029;-71
2022/05/18 13:34:08;;;;;;;4.35;2.03;;;28.20;91.70;;;;;;5048085;28;20033;-70
2022/05/18 13:36:58;;;;;;;6.68;2.20;;;28.10;88.10;;;;;;5044459;28;20037;-73
2022/05/18 13:39:29;;;;;;;6.28;2.20;;;28.00;88.30;;;;;;5038186;28;20044;-73
2022/05/18 13:41:55;;;;;;;4.28;1.90;;;27.80;89.90;;;;;;5042791;28;20026;-73
2022/05/18 13:44:23;;;;;;;5.25;2.28;;;27.80;89.60;;;;;;5052140;28;20035;-72
2022/05/18 13:46:49;;;;;;;5.25;2.45;;;27.60;88.50;;;;;;5051897;28;20021;-73
2022/05/18 13:49:20;;;;;;;7.82;2.45;;;27.40;90.30;;;;;;5052171;28;20040;-70
2022/05/18 13:51:57;;;;;;;4.93;1.85;;;27.10;91.00;;;;;;5025934;28;20021;-71
2022/05/18 13:54:27;;;;;;;4.15;2.28;;;26.80;91.70;;;;;;5048738;28;20111;-73
2022/05/18 13:56:59;;;;;;;5.75;2.10;;;26.50;91.70;;;;;;5034667;28;20247;-71
2022/05/18 13:59:36;;;;;;;4.60;2.35;;;26.20;92.00;;;;;;5052212;28;20036;-70